sensor_id;sensor_type;location;lat;lon;timestamp;pressure;altitude;pressure_sealevel;temperature;humidity
18755;BME280;35061;47.664;9.166;2023-01-30T00:01:54;102386.16;;;-1.06;70.81
18755;BME280;35061;47.664;9.166;2023-01-30T00:04:22;102390.16;;;-1.07;70.68
18755;BME280;35061;47.664;9.166;2023-01-30T00:06:50;102384.11;;;-1.09;70.72
18755;BME280;35061;47.664;9.166;2023-01-30T00:09:17;102377.66;;;-1.10;70.76
18755;BME280;35061;47.664;9.166;2023-01-30T00:11:45;102372.04;;;-1.10;71.23
18755;BME280;35061;47.664;9.166;2023-01-30T00:14:13;102378.48;;;-1.09;71.05
18755;BME280;35061;47.664;9.166;2023-01-30T00:16:41;102365.53;;;-1.14;70.61
18755;BME280;35061;47.664;9.166;2023-01-30T00:19:09;102376.36;;;-1.16;70.62
18755;BME280;35061;47.664;9.166;2023-01-30T00:21:36;102362.59;;;-1.21;70.63
18755;BME280;35061;47.664;9.166;2023-01-30T00:24:05;102370.44;;;-1.31;70.64
18755;BME280;35061;47.664;9.166;2023-01-30T00:26:32;102362.00;;;-1.31;70.84
18755;BME280;35061;47.664;9.166;2023-01-30T00:29:00;102360.89;;;-1.26;70.96
18755;BME280;35061;47.664;9.166;2023-01-30T00:31:28;102368.15;;;-1.25;70.82
18755;BME280;35061;47.664;9.166;2023-01-30T00:33:55;102368.22;;;-1.21;71.05
18755;BME280;35061;47.664;9.166;2023-01-30T00:36:23;102353.04;;;-1.17;71.31
18755;BME280;35061;47.664;9.166;2023-01-30T00:38:51;102359.02;;;-1.18;70.95
18755;BME280;35061;47.664;9.166;2023-01-30T00:41:19;102356.28;;;-1.15;71.06
18755;BME280;35061;47.664;9.166;2023-01-30T00:43:47;102354.02;;;-1.05;71.27
18755;BME280;35061;47.664;9.166;2023-01-30T00:46:33;102352.84;;;-1.04;71.03
18755;BME280;35061;47.664;9.166;2023-01-30T00:49:20;102347.65;;;-1.02;70.92
18755;BME280;35061;47.664;9.166;2023-01-30T00:51:47;102346.44;;;-1.05;70.71
18755;BME280;35061;47.664;9.166;2023-01-30T00:54:15;102336.73;;;-1.07;70.61
18755;BME280;35061;47.664;9.166;2023-01-30T00:56:43;102327.93;;;-1.06;70.96
18755;BME280;35061;47.664;9.166;2023-01-30T00:59:11;102320.27;;;-1.05;71.17
18755;BME280;35061;47.664;9.166;2023-01-30T01:01:38;102325.61;;;-1.00;71.01
18755;BME280;35061;47.664;9.166;2023-01-30T01:04:07;102324.04;;;-0.98;71.08
18755;BME280;35061;47.664;9.166;2023-01-30T01:06:37;102332.15;;;-0.92;71.02
18755;BME280;35061;47.664;9.166;2023-01-30T01:09:05;102322.53;;;-0.91;70.98
18755;BME280;35061;47.664;9.166;2023-01-30T01:11:33;102324.16;;;-0.90;70.91
18755;BME280;35061;47.664;9.166;2023-01-30T01:14:03;102327.05;;;-0.87;70.96
18755;BME280;35061;47.664;9.166;2023-01-30T01:16:33;102325.77;;;-0.89;70.89
18755;BME280;35061;47.664;9.166;2023-01-30T01:19:02;102327.83;;;-0.86;70.60
18755;BME280;35061;47.664;9.166;2023-01-30T01:21:30;102332.60;;;-0.90;70.61
18755;BME280;35061;47.664;9.166;2023-01-30T01:23:58;102322.11;;;-0.93;70.78
18755;BME280;35061;47.664;9.166;2023-01-30T01:26:27;102319.23;;;-0.97;70.73
18755;BME280;35061;47.664;9.166;2023-01-30T01:28:56;102309.45;;;-1.03;70.69
18755;BME280;35061;47.664;9.166;2023-01-30T01:31:24;102307.78;;;-1.08;70.83
18755;BME280;35061;47.664;9.166;2023-01-30T01:33:53;102305.73;;;-1.11;70.96
18755;BME280;35061;47.664;9.166;2023-01-30T01:36:20;102299.67;;;-1.13;71.15
18755;BME280;35061;47.664;9.166;2023-01-30T01:39:08;102304.48;;;-1.14;71.15
18755;BME280;35061;47.664;9.166;2023-01-30T01:41:36;102294.34;;;-1.18;71.00
18755;BME280;35061;47.664;9.166;2023-01-30T01:44:07;102292.29;;;-1.21;71.19
18755;BME280;35061;47.664;9.166;2023-01-30T01:49:25;102295.85;;;-1.24;71.34
18755;BME280;35061;47.664;9.166;2023-01-30T01:52:15;102287.80;;;-1.26;71.69
18755;BME280;35061;47.664;9.166;2023-01-30T01:54:48;102285.32;;;-1.31;71.32
18755;BME280;35061;47.664;9.166;2023-01-30T01:59:53;102292.13;;;-1.32;71.29
18755;BME280;35061;47.664;9.166;2023-01-30T02:02:24;102283.23;;;-1.34;71.49
18755;BME280;35061;47.664;9.166;2023-01-30T02:04:56;102290.03;;;-1.35;71.46
18755;BME280;35061;47.664;9.166;2023-01-30T02:07:37;102289.24;;;-1.36;71.49
18755;BME280;35061;47.664;9.166;2023-01-30T02:10:07;102290.42;;;-1.37;71.59
18755;BME280;35061;47.664;9.166;2023-01-30T02:12:37;102287.55;;;-1.41;71.47
18755;BME280;35061;47.664;9.166;2023-01-30T02:15:06;102297.19;;;-1.42;71.96
18755;BME280;35061;47.664;9.166;2023-01-30T02:17:34;102298.04;;;-1.37;71.81
18755;BME280;35061;47.664;9.166;2023-01-30T02:22:38;102297.26;;;-1.38;71.97
18755;BME280;35061;47.664;9.166;2023-01-30T02:28:59;102287.74;;;-1.30;72.26
18755;BME280;35061;47.664;9.166;2023-01-30T02:31:37;102280.12;;;-1.29;72.17
18755;BME280;35061;47.664;9.166;2023-01-30T02:37:22;102288.98;;;-1.27;72.16
18755;BME280;35061;47.664;9.166;2023-01-30T02:40:09;102301.05;;;-1.27;71.92
18755;BME280;35061;47.664;9.166;2023-01-30T02:51:04;102314.42;;;-1.20;72.03
18755;BME280;35061;47.664;9.166;2023-01-30T02:53:34;102333.72;;;-1.18;71.88
18755;BME280;35061;47.664;9.166;2023-01-30T02:56:03;102340.98;;;-1.17;71.94
18755;BME280;35061;47.664;9.166;2023-01-30T02:58:40;102339.80;;;-1.16;71.87
18755;BME280;35061;47.664;9.166;2023-01-30T03:07:02;102329.95;;;-1.26;71.81
18755;BME280;35061;47.664;9.166;2023-01-30T03:10:06;102331.16;;;-1.27;72.00
18755;BME280;35061;47.664;9.166;2023-01-30T03:13:01;102345.98;;;-1.30;72.05
18755;BME280;35061;47.664;9.166;2023-01-30T03:15:39;102336.27;;;-1.33;72.23
18755;BME280;35061;47.664;9.166;2023-01-30T03:18:08;102349.48;;;-1.37;71.99
18755;BME280;35061;47.664;9.166;2023-01-30T03:20:38;102367.07;;;-1.40;72.04
18755;BME280;35061;47.664;9.166;2023-01-30T03:23:06;102384.99;;;-1.48;72.58
18755;BME280;35061;47.664;9.166;2023-01-30T03:25:37;102377.27;;;-1.51;72.63
18755;BME280;35061;47.664;9.166;2023-01-30T03:28:06;102382.47;;;-1.53;73.42
18755;BME280;35061;47.664;9.166;2023-01-30T03:30:34;102391.27;;;-1.55;74.12
18755;BME280;35061;47.664;9.166;2023-01-30T03:33:02;102372.86;;;-1.52;73.92
18755;BME280;35061;47.664;9.166;2023-01-30T03:35:30;102346.44;;;-1.48;73.76
18755;BME280;35061;47.664;9.166;2023-01-30T03:37:58;102340.06;;;-1.45;73.82
18755;BME280;35061;47.664;9.166;2023-01-30T03:40:25;102333.72;;;-1.42;73.58
18755;BME280;35061;47.664;9.166;2023-01-30T03:42:53;102332.54;;;-1.41;73.65
18755;BME280;35061;47.664;9.166;2023-01-30T03:45:21;102347.02;;;-1.38;73.77
18755;BME280;35061;47.664;9.166;2023-01-30T03:47:48;102353.08;;;-1.36;73.63
18755;BME280;35061;47.664;9.166;2023-01-30T03:50:16;102355.52;;;-1.35;73.57
18755;BME280;35061;47.664;9.166;2023-01-30T03:52:44;102336.62;;;-1.34;73.79
18755;BME280;35061;47.664;9.166;2023-01-30T03:55:12;102338.66;;;-1.35;73.80
18755;BME280;35061;47.664;9.166;2023-01-30T03:57:40;102368.02;;;-1.32;73.88
18755;BME280;35061;47.664;9.166;2023-01-30T04:00:08;102376.13;;;-1.27;73.59
18755;BME280;35061;47.664;9.166;2023-01-30T04:02:36;102359.29;;;-1.27;73.80
18755;BME280;35061;47.664;9.166;2023-01-30T04:05:05;102366.88;;;-1.28;73.94
18755;BME280;35061;47.664;9.166;2023-01-30T04:07:33;102353.30;;;-1.25;73.73
18755;BME280;35061;47.664;9.166;2023-01-30T04:10:00;102343.66;;;-1.24;73.91
18755;BME280;35061;47.664;9.166;2023-01-30T04:12:28;102330.80;;;-1.25;73.84
18755;BME280;35061;47.664;9.166;2023-01-30T04:14:56;102368.54;;;-1.27;74.04
18755;BME280;35061;47.664;9.166;2023-01-30T04:17:23;102373.71;;;-1.29;74.10
18755;BME280;35061;47.664;9.166;2023-01-30T04:19:51;102374.95;;;-1.26;74.15
18755;BME280;35061;47.664;9.166;2023-01-30T04:22:19;102389.83;;;-1.25;73.85
18755;BME280;35061;47.664;9.166;2023-01-30T04:24:46;102397.29;;;-1.33;74.30
18755;BME280;35061;47.664;9.166;2023-01-30T04:27:14;102393.27;;;-1.36;74.49
18755;BME280;35061;47.664;9.166;2023-01-30T04:29:42;102388.42;;;-1.35;74.50
18755;BME280;35061;47.664;9.166;2023-01-30T04:32:10;102397.25;;;-1.37;74.72
18755;BME280;35061;47.664;9.166;2023-01-30T04:34:37;102374.36;;;-1.35;74.61
18755;BME280;35061;47.664;9.166;2023-01-30T04:37:05;102346.27;;;-1.35;74.49
18755;BME280;35061;47.664;9.166;2023-01-30T04:39:33;102327.41;;;-1.35;74.48
18755;BME280;35061;47.664;9.166;2023-01-30T04:42:01;102324.95;;;-1.36;74.61
18755;BME280;35061;47.664;9.166;2023-01-30T04:44:28;102315.27;;;-1.39;74.42
18755;BME280;35061;47.664;9.166;2023-01-30T04:46:56;102284.66;;;-1.44;74.68
18755;BME280;35061;47.664;9.166;2023-01-30T04:49:24;102277.05;;;-1.44;74.54
18755;BME280;35061;47.664;9.166;2023-01-30T04:51:52;102262.98;;;-1.44;74.51
18755;BME280;35061;47.664;9.166;2023-01-30T04:54:19;102250.76;;;-1.55;75.58
18755;BME280;35061;47.664;9.166;2023-01-30T04:56:47;102274.04;;;-1.55;75.64
18755;BME280;35061;47.664;9.166;2023-01-30T04:59:15;102281.23;;;-1.57;75.49
18755;BME280;35061;47.664;9.166;2023-01-30T05:01:43;102261.94;;;-1.59;75.64
18755;BME280;35061;47.664;9.166;2023-01-30T05:04:11;102261.88;;;-1.62;75.87
18755;BME280;35061;47.664;9.166;2023-01-30T05:06:39;102263.09;;;-1.60;75.56
18755;BME280;35061;47.664;9.166;2023-01-30T05:09:07;102282.34;;;-1.62;75.74
18755;BME280;35061;47.664;9.166;2023-01-30T05:11:35;102279.86;;;-1.67;75.98
18755;BME280;35061;47.664;9.166;2023-01-30T05:14:03;102297.42;;;-1.70;76.44
18755;BME280;35061;47.664;9.166;2023-01-30T05:16:30;102292.19;;;-1.72;76.39
18755;BME280;35061;47.664;9.166;2023-01-30T05:18:58;102279.70;;;-1.74;76.71
18755;BME280;35061;47.664;9.166;2023-01-30T05:21:26;102284.96;;;-1.73;76.48
18755;BME280;35061;47.664;9.166;2023-01-30T05:23:56;102309.42;;;-1.73;76.63
18755;BME280;35061;47.664;9.166;2023-01-30T05:26:24;102319.39;;;-1.76;76.90
18755;BME280;35061;47.664;9.166;2023-01-30T05:28:54;102308.54;;;-1.77;76.72
18755;BME280;35061;47.664;9.166;2023-01-30T05:31:22;102305.73;;;-1.77;76.64
18755;BME280;35061;47.664;9.166;2023-01-30T05:33:50;102309.75;;;-1.78;76.66
18755;BME280;35061;47.664;9.166;2023-01-30T05:36:20;102311.35;;;-1.77;76.85
18755;BME280;35061;47.664;9.166;2023-01-30T05:38:48;102296.93;;;-1.76;77.07
18755;BME280;35061;47.664;9.166;2023-01-30T05:41:17;102278.52;;;-1.73;76.75
18755;BME280;35061;47.664;9.166;2023-01-30T05:43:48;102274.43;;;-1.76;76.47
18755;BME280;35061;47.664;9.166;2023-01-30T05:46:16;102268.02;;;-1.76;76.26
18755;BME280;35061;47.664;9.166;2023-01-30T05:48:45;102285.65;;;-1.79;76.27
18755;BME280;35061;47.664;9.166;2023-01-30T05:51:21;102297.98;;;-1.84;76.45
18755;BME280;35061;47.664;9.166;2023-01-30T05:53:49;102293.98;;;-1.83;76.44
18755;BME280;35061;47.664;9.166;2023-01-30T05:56:18;102297.91;;;-1.88;76.48
18755;BME280;35061;47.664;9.166;2023-01-30T05:58:51;102307.52;;;-1.89;76.65
18755;BME280;35061;47.664;9.166;2023-01-30T06:01:19;102305.13;;;-1.87;76.56
18755;BME280;35061;47.664;9.166;2023-01-30T06:03:48;102311.94;;;-1.88;76.53
18755;BME280;35061;47.664;9.166;2023-01-30T06:06:16;102298.34;;;-1.86;76.56
18755;BME280;35061;47.664;9.166;2023-01-30T06:08:44;102308.05;;;-1.83;76.99
18755;BME280;35061;47.664;9.166;2023-01-30T06:11:15;102313.73;;;-1.79;76.72
18755;BME280;35061;47.664;9.166;2023-01-30T06:13:43;102311.77;;;-1.75;76.49
18755;BME280;35061;47.664;9.166;2023-01-30T06:16:13;102296.21;;;-1.73;76.39
18755;BME280;35061;47.664;9.166;2023-01-30T06:18:41;102298.99;;;-1.73;76.18
18755;BME280;35061;47.664;9.166;2023-01-30T06:21:10;102284.21;;;-1.70;75.76
18755;BME280;35061;47.664;9.166;2023-01-30T06:23:37;102274.95;;;-1.70;75.88
18755;BME280;35061;47.664;9.166;2023-01-30T06:26:05;102288.20;;;-1.71;75.72
18755;BME280;35061;47.664;9.166;2023-01-30T06:28:35;102301.05;;;-1.70;75.65
18755;BME280;35061;47.664;9.166;2023-01-30T06:31:05;102286.66;;;-1.68;75.49
18755;BME280;35061;47.664;9.166;2023-01-30T06:33:34;102281.82;;;-1.67;75.46
18755;BME280;35061;47.664;9.166;2023-01-30T06:36:02;102266.23;;;-1.65;75.13
18755;BME280;35061;47.664;9.166;2023-01-30T06:38:29;102272.21;;;-1.66;75.28
18755;BME280;35061;47.664;9.166;2023-01-30T06:40:57;102271.42;;;-1.67;74.99
18755;BME280;35061;47.664;9.166;2023-01-30T06:43:25;102296.70;;;-1.67;74.99
18755;BME280;35061;47.664;9.166;2023-01-30T06:45:53;102301.57;;;-1.64;75.01
18755;BME280;35061;47.664;9.166;2023-01-30T06:48:21;102306.38;;;-1.64;74.91
18755;BME280;35061;47.664;9.166;2023-01-30T06:50:48;102304.38;;;-1.64;74.81
18755;BME280;35061;47.664;9.166;2023-01-30T06:53:16;102315.93;;;-1.69;75.05
18755;BME280;35061;47.664;9.166;2023-01-30T06:55:44;102332.54;;;-1.60;75.24
18755;BME280;35061;47.664;9.166;2023-01-30T06:58:13;102328.65;;;-1.56;74.90
18755;BME280;35061;47.664;9.166;2023-01-30T07:00:41;102346.53;;;-1.21;74.47
18755;BME280;35061;47.664;9.166;2023-01-30T07:03:14;102354.58;;;-1.19;74.44
18755;BME280;35061;47.664;9.166;2023-01-30T07:05:43;102342.16;;;-0.95;74.36
18755;BME280;35061;47.664;9.166;2023-01-30T07:08:11;102340.98;;;-0.94;73.71
18755;BME280;35061;47.664;9.166;2023-01-30T07:10:40;102345.78;;;-0.94;74.14
18755;BME280;35061;47.664;9.166;2023-01-30T07:13:08;102354.55;;;-1.00;73.96
18755;BME280;35061;47.664;9.166;2023-01-30T07:15:36;102348.04;;;-1.04;74.19
18755;BME280;35061;47.664;9.166;2023-01-30T07:18:04;102347.91;;;-1.11;73.73
18755;BME280;35061;47.664;9.166;2023-01-30T07:20:32;102346.21;;;-1.16;73.72
18755;BME280;35061;47.664;9.166;2023-01-30T07:22:59;102362.66;;;-1.18;73.79
18755;BME280;35061;47.664;9.166;2023-01-30T07:25:28;102354.97;;;-1.21;73.74
18755;BME280;35061;47.664;9.166;2023-01-30T07:27:58;102367.73;;;-1.27;73.86
18755;BME280;35061;47.664;9.166;2023-01-30T07:30:28;102379.56;;;-1.37;74.13
18755;BME280;35061;47.664;9.166;2023-01-30T07:32:57;102376.69;;;-1.41;74.34
18755;BME280;35061;47.664;9.166;2023-01-30T07:35:28;102377.08;;;-1.43;74.36
18755;BME280;35061;47.664;9.166;2023-01-30T07:37:56;102374.62;;;-1.44;74.52
18755;BME280;35061;47.664;9.166;2023-01-30T07:40:24;102383.42;;;-1.46;74.61
18755;BME280;35061;47.664;9.166;2023-01-30T07:43:07;102387.34;;;-1.50;74.80
18755;BME280;35061;47.664;9.166;2023-01-30T07:48:04;102386.23;;;-1.46;74.54
18755;BME280;35061;47.664;9.166;2023-01-30T07:50:32;102378.55;;;-1.49;74.58
18755;BME280;35061;47.664;9.166;2023-01-30T07:53:04;102370.47;;;-1.50;74.76
18755;BME280;35061;47.664;9.166;2023-01-30T07:55:33;102351.27;;;-1.48;74.77
18755;BME280;35061;47.664;9.166;2023-01-30T07:58:01;102331.59;;;-1.48;74.79
18755;BME280;35061;47.664;9.166;2023-01-30T08:00:29;102316.78;;;-1.45;74.90
18755;BME280;35061;47.664;9.166;2023-01-30T08:02:57;102305.89;;;-1.47;74.97
18755;BME280;35061;47.664;9.166;2023-01-30T08:05:25;102322.40;;;-1.45;75.02
18755;BME280;35061;47.664;9.166;2023-01-30T08:07:56;102331.79;;;-1.37;75.09
18755;BME280;35061;47.664;9.166;2023-01-30T08:10:24;102332.60;;;-1.37;74.99
18755;BME280;35061;47.664;9.166;2023-01-30T08:12:51;102335.45;;;-1.33;75.03
18755;BME280;35061;47.664;9.166;2023-01-30T08:15:19;102353.20;;;-1.29;74.98
18755;BME280;35061;47.664;9.166;2023-01-30T08:17:57;102349.15;;;-1.32;75.01
18755;BME280;35061;47.664;9.166;2023-01-30T08:20:26;102368.48;;;-1.30;74.99
18755;BME280;35061;47.664;9.166;2023-01-30T08:22:54;102360.59;;;-1.21;74.96
18755;BME280;35061;47.664;9.166;2023-01-30T08:25:22;102363.15;;;-1.12;74.87
18755;BME280;35061;47.664;9.166;2023-01-30T08:27:50;102351.15;;;-1.09;74.54
18755;BME280;35061;47.664;9.166;2023-01-30T08:30:19;102369.72;;;-1.04;74.57
18755;BME280;35061;47.664;9.166;2023-01-30T08:32:49;102371.84;;;-0.98;74.45
18755;BME280;35061;47.664;9.166;2023-01-30T08:35:16;102367.56;;;-0.91;74.33
18755;BME280;35061;47.664;9.166;2023-01-30T08:37:44;102374.85;;;-0.87;74.04
18755;BME280;35061;47.664;9.166;2023-01-30T08:40:13;102377.11;;;-0.96;73.84
18755;BME280;35061;47.664;9.166;2023-01-30T08:42:44;102376.23;;;-1.00;73.52
18755;BME280;35061;47.664;9.166;2023-01-30T08:45:12;102395.55;;;-0.99;73.53
18755;BME280;35061;47.664;9.166;2023-01-30T08:47:40;102376.98;;;-1.03;73.78
18755;BME280;35061;47.664;9.166;2023-01-30T08:50:09;102374.98;;;-1.03;73.81
18755;BME280;35061;47.664;9.166;2023-01-30T08:52:37;102363.73;;;-1.03;73.87
18755;BME280;35061;47.664;9.166;2023-01-30T08:55:05;102350.52;;;-0.99;73.73
18755;BME280;35061;47.664;9.166;2023-01-30T08:57:33;102358.47;;;-1.04;73.72
18755;BME280;35061;47.664;9.166;2023-01-30T09:00:01;102344.80;;;-1.06;73.76
18755;BME280;35061;47.664;9.166;2023-01-30T09:02:28;102346.44;;;-1.05;73.70
18755;BME280;35061;47.664;9.166;2023-01-30T09:04:56;102356.41;;;-1.07;73.47
18755;BME280;35061;47.664;9.166;2023-01-30T09:07:24;102372.11;;;-1.06;73.56
18755;BME280;35061;47.664;9.166;2023-01-30T09:09:52;102396.66;;;-1.03;73.64
18755;BME280;35061;47.664;9.166;2023-01-30T09:12:20;102407.13;;;-1.04;73.63
18755;BME280;35061;47.664;9.166;2023-01-30T09:14:48;102413.96;;;-1.01;73.55
18755;BME280;35061;47.664;9.166;2023-01-30T09:17:16;102412.13;;;-0.93;73.51
18755;BME280;35061;47.664;9.166;2023-01-30T09:19:43;102392.87;;;-0.91;73.37
18755;BME280;35061;47.664;9.166;2023-01-30T09:22:11;102400.95;;;-0.90;73.45
18755;BME280;35061;47.664;9.166;2023-01-30T09:24:39;102380.48;;;-0.87;73.36
18755;BME280;35061;47.664;9.166;2023-01-30T09:27:06;102388.59;;;-0.81;73.16
18755;BME280;35061;47.664;9.166;2023-01-30T09:29:34;102403.92;;;-0.79;73.16
18755;BME280;35061;47.664;9.166;2023-01-30T09:32:02;102408.50;;;-0.71;73.06
18755;BME280;35061;47.664;9.166;2023-01-30T09:34:30;102416.61;;;-0.65;73.06
18755;BME280;35061;47.664;9.166;2023-01-30T09:36:58;102410.73;;;-0.57;72.92
18755;BME280;35061;47.664;9.166;2023-01-30T09:39:30;102417.36;;;-0.45;72.64
18755;BME280;35061;47.664;9.166;2023-01-30T09:50:20;102425.54;;;-0.36;72.02
18755;BME280;35061;47.664;9.166;2023-01-30T09:55:24;102426.62;;;-0.18;71.70
18755;BME280;35061;47.664;9.166;2023-01-30T09:57:53;102407.03;;;-0.10;71.41
18755;BME280;35061;47.664;9.166;2023-01-30T10:00:38;102394.63;;;-0.02;71.61
18755;BME280;35061;47.664;9.166;2023-01-30T10:03:16;102381.10;;;0.07;70.80
18755;BME280;35061;47.664;9.166;2023-01-30T10:05:52;102381.10;;;0.07;69.90
18755;BME280;35061;47.664;9.166;2023-01-30T10:14:07;102370.14;;;0.33;70.13
18755;BME280;35061;47.664;9.166;2023-01-30T10:19:38;102358.30;;;0.54;69.49
18755;BME280;35061;47.664;9.166;2023-01-30T10:28:42;102369.10;;;0.82;67.78
18755;BME280;35061;47.664;9.166;2023-01-30T10:30:48;102374.72;;;0.82;67.14
18755;BME280;35061;47.664;9.166;2023-01-30T10:33:23;102359.88;;;0.89;67.28
18755;BME280;35061;47.664;9.166;2023-01-30T10:36:08;102374.40;;;0.91;66.84
18755;BME280;35061;47.664;9.166;2023-01-30T10:38:46;102371.71;;;1.02;67.19
18755;BME280;35061;47.664;9.166;2023-01-30T10:41:36;102368.09;;;1.05;66.64
18755;BME280;35061;47.664;9.166;2023-01-30T10:44:08;102360.56;;;1.20;66.85
18755;BME280;35061;47.664;9.166;2023-01-30T10:49:46;102342.16;;;1.37;65.55
18755;BME280;35061;47.664;9.166;2023-01-30T10:55:46;102299.09;;;1.51;63.89
18755;BME280;35061;47.664;9.166;2023-01-30T10:58:27;102275.28;;;1.49;63.96
18755;BME280;35061;47.664;9.166;2023-01-30T11:01:03;102261.97;;;1.53;62.98
18755;BME280;35061;47.664;9.166;2023-01-30T11:06:10;102265.66;;;1.61;63.49
18755;BME280;35061;47.664;9.166;2023-01-30T11:08:39;102263.25;;;1.63;63.42
18755;BME280;35061;47.664;9.166;2023-01-30T11:11:42;102260.83;;;1.65;62.71
18755;BME280;35061;47.664;9.166;2023-01-30T11:14:14;102251.18;;;1.70;62.86
18755;BME280;35061;47.664;9.166;2023-01-30T11:16:47;102252.81;;;1.78;63.30
18755;BME280;35061;47.664;9.166;2023-01-30T11:19:23;102241.53;;;1.81;62.90
18755;BME280;35061;47.664;9.166;2023-01-30T11:21:54;102227.84;;;1.84;62.56
18755;BME280;35061;47.664;9.166;2023-01-30T11:24:28;102228.65;;;1.91;62.79
18755;BME280;35061;47.664;9.166;2023-01-30T11:29:43;102197.20;;;2.07;62.61
18755;BME280;35061;47.664;9.166;2023-01-30T11:32:14;102194.77;;;2.09;62.58
18755;BME280;35061;47.664;9.166;2023-01-30T11:35:02;102194.80;;;2.13;62.27
18755;BME280;35061;47.664;9.166;2023-01-30T11:37:40;102187.94;;;2.14;61.99
18755;BME280;35061;47.664;9.166;2023-01-30T11:43:02;102168.98;;;2.36;62.52
18755;BME280;35061;47.664;9.166;2023-01-30T11:45:39;102178.65;;;2.43;62.26
18755;BME280;35061;47.664;9.166;2023-01-30T11:48:18;102171.42;;;2.53;62.28
18755;BME280;35061;47.664;9.166;2023-01-30T11:51:08;102168.58;;;2.53;61.99
18755;BME280;35061;47.664;9.166;2023-01-30T11:53:41;102169.37;;;2.57;61.97
18755;BME280;35061;47.664;9.166;2023-01-30T11:56:48;102176.66;;;2.72;62.40
18755;BME280;35061;47.664;9.166;2023-01-30T11:59:53;102173.03;;;2.83;62.15
18755;BME280;35061;47.664;9.166;2023-01-30T12:02:28;102158.05;;;2.89;61.55
18755;BME280;35061;47.664;9.166;2023-01-30T12:05:03;102177.41;;;3.02;61.65
18755;BME280;35061;47.664;9.166;2023-01-30T12:07:35;102179.44;;;3.12;61.39
18755;BME280;35061;47.664;9.166;2023-01-30T12:10:39;102180.19;;;3.24;61.52
18755;BME280;35061;47.664;9.166;2023-01-30T12:13:22;102175.74;;;3.30;61.25
18755;BME280;35061;47.664;9.166;2023-01-30T12:16:23;102172.87;;;3.33;61.08
18755;BME280;35061;47.664;9.166;2023-01-30T12:21:47;102163.16;;;3.34;60.65
18755;BME280;35061;47.664;9.166;2023-01-30T12:24:27;102161.98;;;3.32;60.15
18755;BME280;35061;47.664;9.166;2023-01-30T12:27:15;102164.04;;;3.24;59.99
18755;BME280;35061;47.664;9.166;2023-01-30T12:32:24;102160.41;;;3.13;60.40
18755;BME280;35061;47.664;9.166;2023-01-30T12:34:52;102163.64;;;3.11;60.57
18755;BME280;35061;47.664;9.166;2023-01-30T12:48:59;102141.44;;;2.99;60.45
18755;BME280;35061;47.664;9.166;2023-01-30T12:54:43;102130.09;;;3.02;61.03
18755;BME280;35061;47.664;9.166;2023-01-30T12:57:26;102142.23;;;3.06;61.02
18755;BME280;35061;47.664;9.166;2023-01-30T13:02:57;102127.70;;;3.01;60.90
18755;BME280;35061;47.664;9.166;2023-01-30T13:05:40;102125.25;;;2.92;60.82
18755;BME280;35061;47.664;9.166;2023-01-30T13:08:32;102129.30;;;2.91;61.15
18755;BME280;35061;47.664;9.166;2023-01-30T13:13:41;102122.87;;;2.87;61.27
18755;BME280;35061;47.664;9.166;2023-01-30T13:16:24;102111.95;;;2.89;61.58
18755;BME280;35061;47.664;9.166;2023-01-30T13:19:02;102114.76;;;2.89;61.42
18755;BME280;35061;47.664;9.166;2023-01-30T13:21:45;102111.95;;;2.85;61.38
18755;BME280;35061;47.664;9.166;2023-01-30T13:27:18;102109.10;;;2.89;61.40
18755;BME280;35061;47.664;9.166;2023-01-30T13:29:48;102094.58;;;2.87;61.41
18755;BME280;35061;47.664;9.166;2023-01-30T13:32:33;102104.26;;;2.89;61.66
18755;BME280;35061;47.664;9.166;2023-01-30T13:37:08;102098.18;;;2.91;61.45
18755;BME280;35061;47.664;9.166;2023-01-30T13:39:50;102126.49;;;2.91;61.46
18755;BME280;35061;47.664;9.166;2023-01-30T13:42:27;102113.94;;;2.92;61.40
18755;BME280;35061;47.664;9.166;2023-01-30T13:44:57;102114.76;;;2.92;61.36
18755;BME280;35061;47.664;9.166;2023-01-30T13:53:04;102113.94;;;3.03;61.18
18755;BME280;35061;47.664;9.166;2023-01-30T14:01:02;102105.01;;;3.12;61.11
18755;BME280;35061;47.664;9.166;2023-01-30T14:03:33;102121.98;;;3.15;61.16
18755;BME280;35061;47.664;9.166;2023-01-30T14:06:05;102126.01;;;3.18;61.08
18755;BME280;35061;47.664;9.166;2023-01-30T14:11:37;102117.08;;;3.27;61.23
18755;BME280;35061;47.664;9.166;2023-01-30T14:14:26;102114.23;;;3.27;61.22
18755;BME280;35061;47.664;9.166;2023-01-30T14:17:18;102105.77;;;3.27;60.89
18755;BME280;35061;47.664;9.166;2023-01-30T14:19:54;102110.60;;;3.30;60.94
18755;BME280;35061;47.664;9.166;2023-01-30T14:22:28;102110.18;;;3.35;61.03
18755;BME280;35061;47.664;9.166;2023-01-30T14:57:14;102169.13;;;3.62;61.91
18755;BME280;35061;47.664;9.166;2023-01-30T14:59:52;102170.77;;;3.63;61.67
18755;BME280;35061;47.664;9.166;2023-01-30T15:02:46;102163.48;;;3.62;61.97
18755;BME280;35061;47.664;9.166;2023-01-30T15:05:25;102176.82;;;3.61;62.03
18755;BME280;35061;47.664;9.166;2023-01-30T15:08:17;102174.40;;;3.63;62.10
18755;BME280;35061;47.664;9.166;2023-01-30T15:11:37;102184.11;;;3.55;62.19
18755;BME280;35061;47.664;9.166;2023-01-30T15:14:05;102174.44;;;3.56;62.34
18755;BME280;35061;47.664;9.166;2023-01-30T15:22:38;102192.23;;;3.60;63.09
18755;BME280;35061;47.664;9.166;2023-01-30T15:27:57;102205.56;;;3.60;63.50
18755;BME280;35061;47.664;9.166;2023-01-30T15:33:24;102212.46;;;3.55;64.25
18755;BME280;35061;47.664;9.166;2023-01-30T15:35:57;102208.45;;;3.49;64.42
18755;BME280;35061;47.664;9.166;2023-01-30T15:38:29;102222.99;;;3.51;64.74
18755;BME280;35061;47.664;9.166;2023-01-30T15:41:02;102220.61;;;3.46;65.12
18755;BME280;35061;47.664;9.166;2023-01-30T15:43:41;102218.19;;;3.41;65.33
18755;BME280;35061;47.664;9.166;2023-01-30T15:46:17;102218.58;;;3.39;65.42
18755;BME280;35061;47.664;9.166;2023-01-30T15:51:29;102233.16;;;3.34;65.66
18755;BME280;35061;47.664;9.166;2023-01-30T15:54:00;102234.41;;;3.29;65.86
18755;BME280;35061;47.664;9.166;2023-01-30T15:56:30;102242.05;;;3.29;66.16
18755;BME280;35061;47.664;9.166;2023-01-30T15:59:00;102249.77;;;3.25;66.57
18755;BME280;35061;47.664;9.166;2023-01-30T16:01:28;102272.44;;;3.28;66.65